Time;durP1;ratioP1;P1;durP2;ratioP2;P2;SDS_P1;SDS_P2;PMS_P1;PMS_P2;Temp;Humidity;BMP_temperature;BMP_pressure;BME280_temperature;BME280_humidity;BME280_pressure;Samples;Min_cycle;Max_cycle;Signal;HPM_P1;HPM_P2
2022/05/30 00:01:49;;;;;;;5.43;4.38;;;;;;;14.93;76.94;92755.53;5093952;28;20016;-48
2022/05/30 00:04:14;;;;;;;6.00;4.55;;;;;;;14.88;77.27;92759.38;5093558;28;20039;-49
2022/05/30 00:06:40;;;;;;;5.43;4.70;;;;;;;14.78;77.94;92755.94;5093727;28;20024;-49
2022/05/30 00:09:05;;;;;;;5.15;4.00;;;;;;;14.75;78.28;92753.59;5093770;28;20016;-50
2022/05/30 00:11:31;;;;;;;6.78;4.60;;;;;;;14.62;78.32;92748.56;5093745;28;20024;-48
2022/05/30 00:13:56;;;;;;;5.35;4.30;;;;;;;14.70;77.35;92760.94;5094072;28;20019;-50
2022/05/30 00:16:23;;;;;;;4.88;4.05;;;;;;;14.70;77.24;92754.66;5113779;28;20063;-50
2022/05/30 00:18:49;;;;;;;5.10;4.45;;;;;;;14.72;77.89;92758.31;5114033;28;20015;-52
2022/05/30 00:21:22;;;;;;;5.00;3.95;;;;;;;14.77;78.61;92753.75;5113877;28;20062;-50
2022/05/30 00:23:48;;;;;;;5.82;4.63;;;;;;;14.63;79.02;92755.56;5113677;27;20119;-49
2022/05/30 00:26:14;;;;;;;8.32;5.35;;;;;;;14.72;79.60;92752.00;5113723;28;20421;-49
2022/05/30 00:28:40;;;;;;;7.43;4.90;;;;;;;14.73;79.73;92754.19;5113894;28;20051;-49
2022/05/30 00:31:11;;;;;;;6.95;5.50;;;;;;;14.72;80.13;92755.53;5113739;28;20028;-48
2022/05/30 00:33:37;;;;;;;6.93;5.55;;;;;;;14.82;79.63;92756.19;5113536;28;20035;-50
2022/05/30 00:36:03;;;;;;;9.93;6.38;;;;;;;14.69;80.45;92756.69;5113278;28;20381;-49
2022/05/30 00:38:28;;;;;;;9.13;5.25;;;;;;;14.77;80.59;92754.44;5113183;28;20027;-49
2022/05/30 00:40:53;;;;;;;6.53;4.25;;;;;;;14.89;79.19;92749.72;5113248;28;20020;-48
2022/05/30 00:43:28;;;;;;;4.88;4.25;;;;;;;14.91;78.70;92763.75;5113518;28;20028;-49
2022/05/30 00:45:56;;;;;;;5.25;3.30;;;;;;;14.95;77.90;92761.25;5113052;28;20027;-48
2022/05/30 00:48:28;;;;;;;8.23;3.70;;;;;;;14.94;77.82;92742.38;5113402;27;20095;-48
2022/05/30 00:50:58;;;;;;;6.50;4.00;;;;;;;15.07;77.65;92759.25;5112190;28;20030;-50
2022/05/30 00:53:24;;;;;;;8.95;4.63;;;;;;;15.12;77.49;92769.31;5111794;28;20534;-48
2022/05/30 00:55:50;;;;;;;9.25;4.93;;;;;;;15.10;78.06;92771.97;5113000;28;20023;-49
2022/05/30 00:58:16;;;;;;;5.93;4.50;;;;;;;15.04;78.12;92773.63;5112055;28;20515;-49
2022/05/30 01:00:42;;;;;;;6.78;4.78;;;;;;;15.16;77.79;92768.84;5111661;28;20055;-50
2022/05/30 01:08:35;;;;;;;8.75;6.63;;;;;;;15.12;79.36;92783.22;5113047;28;20058;-49
2022/05/30 01:11:00;;;;;;;8.73;7.28;;;;;;;15.15;79.50;92784.84;5112708;28;20493;-49
2022/05/30 01:13:29;;;;;;;12.20;7.43;;;;;;;15.07;79.79;92778.00;5112897;28;20023;-50
2022/05/30 01:15:55;;;;;;;8.85;6.72;;;;;;;15.14;80.10;92780.59;5095517;28;20024;-49
2022/05/30 01:18:34;;;;;;;10.82;7.03;;;;;;;15.23;79.73;92783.88;5092495;28;20027;-50
2022/05/30 01:21:18;;;;;;;11.75;7.85;;;;;;;15.17;79.45;92779.41;5090914;28;20031;-48
2022/05/30 01:23:58;;;;;;;12.18;6.60;;;;;;;15.22;79.30;92785.22;5092311;28;20013;-48
2022/05/30 01:26:40;;;;;;;9.88;6.60;;;;;;;15.18;80.08;92785.69;5090709;28;20386;-50
2022/05/30 01:29:12;;;;;;;9.57;6.57;;;;;;;15.24;79.88;92788.13;5090801;28;20516;-48
2022/05/30 01:31:38;;;;;;;10.85;7.60;;;;;;;15.25;79.94;92790.31;5112347;28;20031;-48
2022/05/30 01:34:04;;;;;;;10.52;8.13;;;;;;;15.26;79.56;92791.06;5112488;28;20027;-51
2022/05/30 01:36:31;;;;;;;12.63;8.57;;;;;;;15.27;79.85;92792.53;5112495;27;20576;-48
2022/05/30 01:38:56;;;;;;;11.10;9.15;;;;;;;15.27;79.75;92792.53;5112372;28;20046;-48
2022/05/30 01:41:22;;;;;;;11.05;8.32;;;;;;;15.23;80.59;92806.88;5112077;28;20028;-49
2022/05/30 01:43:48;;;;;;;13.18;8.68;;;;;;;15.25;80.52;92798.66;5112376;28;20016;-49
2022/05/30 01:46:19;;;;;;;13.77;9.10;;;;;;;15.18;80.35;92805.88;5111485;28;20020;-50
2022/05/30 01:48:45;;;;;;;14.00;9.50;;;;;;;15.19;80.84;92798.25;5112265;28;20058;-48
2022/05/30 01:51:12;;;;;;;13.48;9.65;;;;;;;15.24;81.17;92802.03;5111333;28;20053;-50
2022/05/30 01:53:38;;;;;;;11.55;8.60;;;;;;;15.23;80.70;92800.56;5112191;28;20408;-49
2022/05/30 01:56:04;;;;;;;13.60;8.43;;;;;;;15.21;80.98;92801.19;5112041;28;20088;-50
2022/05/30 01:58:32;;;;;;;15.00;8.45;;;;;;;15.19;80.89;92799.00;5111813;28;20015;-49
2022/05/30 02:01:24;;;;;;;9.60;7.63;;;;;;;15.22;80.98;92799.13;5112022;28;20020;-49
2022/05/30 02:03:51;;;;;;;15.70;7.38;;;;;;;15.13;80.39;92801.38;5109761;28;20100;-48
2022/05/30 02:06:19;;;;;;;10.43;8.50;;;;;;;15.03;80.85;92805.50;5111475;28;20023;-49
2022/05/30 02:08:45;;;;;;;13.43;7.78;;;;;;;15.00;82.11;92806.72;5111806;28;20016;-50
2022/05/30 02:11:11;;;;;;;12.23;8.48;;;;;;;15.02;81.78;92802.03;5111593;28;20691;-47
2022/05/30 02:13:37;;;;;;;16.08;8.55;;;;;;;15.16;81.37;92816.88;5111742;28;20028;-48
2022/05/30 02:19:05;;;;;;;10.73;8.07;;;;;;;15.21;80.48;92812.31;5078484;28;20504;-50
2022/05/30 02:21:34;;;;;;;14.77;9.02;;;;;;;15.16;81.07;92818.91;5091056;28;20081;-48
2022/05/30 02:24:00;;;;;;;11.50;8.52;;;;;;;15.09;81.24;92811.50;5091254;28;20047;-48
2022/05/30 02:26:25;;;;;;;11.80;8.18;;;;;;;15.10;81.28;92810.91;5099856;28;20055;-48
2022/05/30 02:28:51;;;;;;;13.70;8.55;;;;;;;15.25;80.52;92818.13;5111250;28;20027;-49
2022/05/30 02:31:16;;;;;;;13.80;8.35;;;;;;;15.28;79.66;92819.00;5111082;28;20023;-52
2022/05/30 02:36:41;;;;;;;10.25;8.00;;;;;;;15.28;79.54;92824.56;5111161;28;20557;-48
2022/05/30 02:39:08;;;;;;;12.25;8.35;;;;;;;15.10;79.39;92807.38;5111089;28;20403;-49
2022/05/30 02:41:34;;;;;;;9.82;6.97;;;;;;;15.16;80.11;92827.97;5111257;28;20074;-50
2022/05/30 02:43:59;;;;;;;11.52;7.95;;;;;;;15.14;79.79;92818.78;5111349;28;20122;-48
2022/05/30 02:46:25;;;;;;;9.65;7.72;;;;;;;15.02;79.93;92827.03;5110446;28;20019;-48
2022/05/30 02:48:51;;;;;;;9.77;7.35;;;;;;;15.00;80.63;92834.50;5110949;28;20030;-50
2022/05/30 02:51:16;;;;;;;11.63;7.95;;;;;;;15.05;80.52;92834.19;5111175;28;20024;-48
2022/05/30 02:53:42;;;;;;;11.30;8.25;;;;;;;15.07;79.85;92839.88;5111176;28;20489;-47
2022/05/30 02:56:11;;;;;;;11.75;7.93;;;;;;;15.00;80.10;92842.84;5111163;28;20404;-49
2022/05/30 02:58:36;;;;;;;13.55;9.15;;;;;;;14.94;80.96;92840.38;5110806;28;20114;-48
2022/05/30 03:01:02;;;;;;;14.23;8.05;;;;;;;15.05;81.35;92853.66;5111002;28;20035;-48
2022/05/30 03:03:28;;;;;;;9.57;8.55;;;;;;;15.06;80.92;92854.38;5110576;28;20408;-49
2022/05/30 03:05:54;;;;;;;9.38;6.75;;;;;;;15.04;79.76;92859.81;5110877;28;20026;-47
2022/05/30 03:08:20;;;;;;;11.23;7.22;;;;;;;14.99;80.52;92866.41;5110648;28;20030;-49
2022/05/30 03:10:46;;;;;;;7.95;5.97;;;;;;;15.04;80.36;92866.09;5110962;28;20101;-49
2022/05/30 03:13:11;;;;;;;11.52;7.18;;;;;;;14.96;79.93;92868.34;5110574;28;20074;-48
2022/05/30 03:15:37;;;;;;;8.60;5.95;;;;;;;14.84;80.06;92848.03;5110831;28;20020;-47
2022/05/30 03:18:03;;;;;;;9.60;6.63;;;;;;;14.96;79.88;92853.69;5110431;28;20050;-48
2022/05/30 03:20:29;;;;;;;10.85;6.45;;;;;;;15.15;79.79;92871.03;5110580;28;20023;-50
2022/05/30 03:22:56;;;;;;;9.15;6.05;;;;;;;15.11;79.62;92886.72;5099333;28;20028;-50
2022/05/30 03:25:22;;;;;;;10.63;8.57;;;;;;;15.22;79.78;92891.63;5090137;28;20099;-48
2022/05/30 03:27:47;;;;;;;10.13;7.90;;;;;;;15.19;79.54;92893.53;5090348;28;20158;-48
2022/05/30 03:30:13;;;;;;;11.25;7.70;;;;;;;15.18;80.17;92899.72;5090057;28;20020;-49
2022/05/30 03:32:39;;;;;;;10.75;7.32;;;;;;;15.19;79.95;92901.88;5090380;28;20031;-48
2022/05/30 03:35:05;;;;;;;8.48;7.13;;;;;;;15.26;79.31;92903.03;5090325;28;20453;-50
2022/05/30 03:37:31;;;;;;;10.50;7.50;;;;;;;15.33;79.25;92909.72;5090356;28;20023;-48
2022/05/30 03:39:56;;;;;;;11.68;6.97;;;;;;;15.29;78.93;92917.81;5090330;28;20028;-49
2022/05/30 03:42:21;;;;;;;11.02;6.68;;;;;;;15.27;78.65;92923.22;5090027;28;20074;-49
2022/05/30 03:44:47;;;;;;;9.88;7.40;;;;;;;15.25;78.58;92928.63;5096008;28;20027;-49
2022/05/30 03:47:12;;;;;;;12.15;6.85;;;;;;;15.19;79.19;92926.19;5110569;28;20016;-47
2022/05/30 03:49:38;;;;;;;9.18;7.13;;;;;;;15.22;80.27;92938.19;5110248;28;20020;-47
2022/05/30 03:52:04;;;;;;;11.88;7.28;;;;;;;15.16;79.33;92927.34;5110512;28;20030;-48
2022/05/30 03:54:30;;;;;;;10.57;7.10;;;;;;;15.29;78.61;92940.06;5110203;28;20028;-49
2022/05/30 03:56:55;;;;;;;9.60;6.57;;;;;;;15.28;78.88;92933.03;5110102;28;20072;-48
2022/05/30 03:59:21;;;;;;;10.32;6.38;;;;;;;15.20;78.34;92933.22;5110267;28;20028;-49
2022/05/30 04:01:47;;;;;;;12.05;8.10;;;;;;;15.19;78.96;92940.81;5109299;28;20016;-48
2022/05/30 04:04:12;;;;;;;9.55;7.20;;;;;;;15.26;78.77;92944.75;5110130;28;20030;-47
2022/05/30 04:06:38;;;;;;;10.07;8.05;;;;;;;15.29;78.98;92951.19;5110335;28;20024;-47
2022/05/30 04:09:04;;;;;;;14.82;8.38;;;;;;;15.23;78.75;92957.03;5110406;28;20042;-50
2022/05/30 04:11:30;;;;;;;26.85;8.55;;;;;;;15.23;79.03;92959.09;5110506;28;20028;-49
2022/05/30 04:13:55;;;;;;;17.98;9.50;;;;;;;15.13;79.09;92965.44;5111459;28;20492;-49
2022/05/30 04:16:21;;;;;;;13.68;8.60;;;;;;;15.17;79.83;92965.72;5113631;28;20481;-47
2022/05/30 04:18:46;;;;;;;11.25;8.73;;;;;;;15.24;79.72;92971.69;5113750;28;20032;-48
2022/05/30 04:21:12;;;;;;;10.52;8.10;;;;;;;15.21;79.03;92968.03;5113686;28;20049;-48
2022/05/30 04:23:41;;;;;;;11.70;7.65;;;;;;;15.24;79.30;92977.25;5113755;28;20051;-47
2022/05/30 04:26:10;;;;;;;10.65;8.05;;;;;;;15.12;79.49;92975.09;5113768;27;20032;-49
2022/05/30 04:28:36;;;;;;;12.63;8.30;;;;;;;15.16;79.25;92982.97;5113512;28;20564;-49
2022/05/30 04:31:10;;;;;;;14.13;8.15;;;;;;;15.24;79.07;92977.25;5113477;28;20027;-50
2022/05/30 04:33:36;;;;;;;12.02;8.13;;;;;;;15.26;79.09;92980.91;5113394;28;20519;-48
2022/05/30 04:36:03;;;;;;;12.43;7.68;;;;;;;15.24;79.18;92966.13;5113697;28;20057;-48
2022/05/30 04:38:29;;;;;;;11.82;7.50;;;;;;;15.43;78.29;92974.38;5113364;28;20024;-48
2022/05/30 04:40:55;;;;;;;11.07;7.18;;;;;;;15.48;77.39;92982.47;5113564;28;20034;-48
2022/05/30 04:43:20;;;;;;;11.73;8.00;;;;;;;15.60;77.42;92990.88;5113556;28;20482;-48
2022/05/30 04:45:46;;;;;;;10.60;6.78;;;;;;;15.71;77.12;92981.91;5112788;28;20107;-48
2022/05/30 04:48:11;;;;;;;11.60;8.25;;;;;;;15.68;76.46;92975.47;5113083;27;20030;-52
2022/05/30 04:50:37;;;;;;;10.65;8.18;;;;;;;15.86;75.96;92978.75;5113419;28;20047;-48
2022/05/30 04:53:02;;;;;;;13.88;7.82;;;;;;;15.97;74.69;92985.72;5113403;28;20408;-48
2022/05/30 04:55:28;;;;;;;11.52;8.57;;;;;;;16.04;74.43;92993.88;5112970;28;20020;-48
2022/05/30 04:57:53;;;;;;;15.85;7.97;;;;;;;16.11;73.99;92987.41;5112971;28;20019;-48
2022/05/30 05:00:23;;;;;;;13.15;6.88;;;;;;;16.12;74.76;92985.31;5113188;28;20027;-48
2022/05/30 05:02:51;;;;;;;10.23;6.68;;;;;;;16.09;73.67;92990.03;5112937;28;20035;-49
2022/05/30 05:05:17;;;;;;;8.05;6.72;;;;;;;16.09;74.55;92994.88;5112765;28;20020;-49
2022/05/30 05:08:07;;;;;;;10.27;7.63;;;;;;;16.13;74.52;92998.69;5111526;28;20057;-48
2022/05/30 05:10:44;;;;;;;11.65;8.43;;;;;;;16.23;74.77;93004.91;5113078;28;20034;-49
2022/05/30 05:13:09;;;;;;;12.63;8.45;;;;;;;16.22;74.42;93002.72;5112981;28;20108;-48
2022/05/30 05:15:35;;;;;;;9.30;8.27;;;;;;;16.25;73.82;93005.03;5099952;28;20513;-51
2022/05/30 05:18:00;;;;;;;11.82;8.13;;;;;;;16.28;73.24;93006.63;5092113;28;20513;-50
2022/05/30 05:20:26;;;;;;;10.27;7.88;;;;;;;16.27;72.40;93010.75;5092452;28;20515;-48
2022/05/30 05:22:51;;;;;;;9.55;8.20;;;;;;;16.22;72.48;93014.56;5092121;28;20012;-48
2022/05/30 05:25:17;;;;;;;9.50;7.47;;;;;;;16.25;72.14;93018.22;5092260;28;20058;-48
2022/05/30 05:27:43;;;;;;;10.43;7.45;;;;;;;16.32;71.89;93020.81;5091934;28;20081;-49
2022/05/30 05:30:10;;;;;;;8.27;7.25;;;;;;;16.36;72.46;93025.94;5092251;28;20024;-48
2022/05/30 05:32:36;;;;;;;9.48;7.38;;;;;;;16.42;72.46;93015.91;5091887;28;20077;-50
2022/05/30 05:35:01;;;;;;;9.82;7.43;;;;;;;16.40;71.91;93026.94;5092224;28;20024;-48
2022/05/30 05:37:27;;;;;;;11.45;7.72;;;;;;;16.43;71.83;93033.38;5091774;28;20027;-49
2022/05/30 05:39:52;;;;;;;11.30;7.75;;;;;;;16.43;71.67;93030.56;5092082;28;20028;-51
2022/05/30 05:42:17;;;;;;;9.25;7.65;;;;;;;16.48;72.44;93035.09;5091660;28;20456;-49
2022/05/30 05:44:43;;;;;;;10.50;8.07;;;;;;;16.46;72.65;93035.69;5097259;28;20019;-51
2022/05/30 05:47:09;;;;;;;12.15;8.43;;;;;;;16.50;71.76;93033.19;5111887;28;20055;-49
2022/05/30 05:49:35;;;;;;;11.48;7.25;;;;;;;16.51;71.16;93037.44;5112214;28;20481;-50
2022/05/30 05:52:00;;;;;;;10.73;7.97;;;;;;;16.44;70.47;93037.59;5111958;28;20049;-48
2022/05/30 05:54:26;;;;;;;10.80;7.63;;;;;;;16.48;71.55;93040.66;5112161;28;20022;-49
2022/05/30 05:56:52;;;;;;;10.82;8.13;;;;;;;16.44;72.12;93043.91;5112143;28;20015;-49
2022/05/30 05:59:17;;;;;;;11.65;8.32;;;;;;;16.44;72.19;93051.53;5112042;28;20556;-48
2022/05/30 06:01:43;;;;;;;11.02;8.60;;;;;;;16.44;72.74;93057.84;5111749;28;20404;-49
2022/05/30 06:04:10;;;;;;;14.13;8.00;;;;;;;16.51;72.31;93056.22;5112000;28;20031;-47
2022/05/30 06:06:36;;;;;;;11.55;8.32;;;;;;;16.56;71.77;93057.94;5111855;28;20105;-48
2022/05/30 06:09:04;;;;;;;10.75;8.43;;;;;;;16.64;71.35;93053.63;5111912;28;20499;-50
2022/05/30 06:11:31;;;;;;;12.17;8.60;;;;;;;16.86;70.70;93057.13;5111726;28;20051;-49
2022/05/30 06:13:57;;;;;;;12.13;6.93;;;;;;;17.10;69.04;93053.09;5111262;28;20421;-48
2022/05/30 06:16:32;;;;;;;9.70;7.03;;;;;;;17.24;67.70;93050.44;5090969;28;20097;-50
2022/05/30 06:19:00;;;;;;;8.25;7.45;;;;;;;17.53;68.29;93058.56;5091337;28;20101;-50
2022/05/30 06:21:28;;;;;;;8.53;6.83;;;;;;;17.79;66.98;93049.75;5091306;28;20405;-48
2022/05/30 06:23:54;;;;;;;8.80;7.30;;;;;;;18.02;65.78;93051.81;5090986;28;20036;-50
2022/05/30 06:26:20;;;;;;;10.25;6.38;;;;;;;18.18;63.85;93050.00;5091112;28;20382;-48
2022/05/30 06:28:46;;;;;;;9.20;7.22;;;;;;;18.23;62.87;93054.50;5091166;28;20016;-50
2022/05/30 06:31:16;;;;;;;8.85;6.90;;;;;;;18.42;63.42;93054.22;5090786;28;20558;-49
2022/05/30 06:33:41;;;;;;;9.13;6.28;;;;;;;18.53;63.51;93063.97;5090832;28;20112;-50
2022/05/30 06:36:10;;;;;;;8.95;6.88;;;;;;;18.75;63.05;93065.97;5090727;28;20024;-49
2022/05/30 06:38:36;;;;;;;9.07;7.70;;;;;;;18.95;62.13;93063.59;5090694;28;20597;-48
2022/05/30 06:41:12;;;;;;;10.43;7.13;;;;;;;19.05;62.04;93063.47;5091021;28;20420;-49
2022/05/30 06:43:38;;;;;;;8.30;7.07;;;;;;;19.17;61.36;93062.06;5090971;28;20539;-49
2022/05/30 06:46:04;;;;;;;9.52;6.60;;;;;;;19.32;61.77;93067.09;5107058;28;20103;-49
2022/05/30 06:48:29;;;;;;;9.38;7.35;;;;;;;19.70;60.39;93071.31;5111197;28;20053;-50
2022/05/30 06:50:55;;;;;;;9.43;5.82;;;;;;;19.98;58.99;93061.63;5111149;28;20024;-48
2022/05/30 06:53:20;;;;;;;11.93;6.05;;;;;;;20.11;58.71;93068.59;5111183;28;20473;-48
2022/05/30 06:55:50;;;;;;;8.90;6.38;;;;;;;20.38;57.92;93063.03;5111140;28;20024;-49
2022/05/30 06:58:19;;;;;;;9.02;6.03;;;;;;;20.54;57.96;93061.06;5111026;28;20024;-50
2022/05/30 07:00:46;;;;;;;8.20;6.05;;;;;;;20.66;57.07;93053.25;5111062;28;20024;-50
2022/05/30 07:03:12;;;;;;;5.70;4.60;;;;;;;20.80;55.59;93058.88;5111050;28;20031;-49
2022/05/30 07:05:39;;;;;;;24.50;7.55;;;;;;;20.87;56.96;93061.34;5110736;28;20023;-49
2022/05/30 07:08:05;;;;;;;7.82;6.22;;;;;;;21.27;55.28;93059.13;5096800;28;20035;-52
2022/05/30 07:10:31;;;;;;;5.55;4.78;;;;;;;21.70;53.18;93066.09;5090672;28;20035;-49
2022/05/30 07:12:58;;;;;;;7.05;4.97;;;;;;;21.56;53.90;93065.44;5090497;28;20057;-49
2022/05/30 07:15:25;;;;;;;5.93;4.22;;;;;;;21.43;53.67;93079.53;5103105;28;20028;-50
2022/05/30 07:17:50;;;;;;;5.07;4.57;;;;;;;22.08;53.05;93072.06;5110493;28;20115;-50
2022/05/30 07:20:16;;;;;;;9.10;4.97;;;;;;;23.23;50.80;93069.38;5110477;28;20016;-52
2022/05/30 07:22:41;;;;;;;5.63;4.10;;;;;;;24.48;46.82;93071.47;5110855;28;20015;-50
2022/05/30 07:25:07;;;;;;;6.47;3.80;;;;;;;25.82;43.54;93063.38;5110694;28;20019;-51
2022/05/30 07:27:33;;;;;;;11.30;4.40;;;;;;;27.21;40.48;93067.44;5110770;28;20027;-52
2022/05/30 07:29:58;;;;;;;5.78;3.78;;;;;;;28.56;38.19;93062.19;5110547;28;20093;-49
2022/05/30 07:32:24;;;;;;;5.68;4.00;;;;;;;30.07;35.37;93082.13;5110460;28;20451;-49
2022/05/30 07:34:49;;;;;;;6.30;3.78;;;;;;;31.21;31.71;93083.72;5110564;28;20069;-50
2022/05/30 07:37:15;;;;;;;5.95;3.40;;;;;;;31.55;29.98;93085.53;5110342;28;20416;-50
2022/05/30 07:39:40;;;;;;;5.43;3.33;;;;;;;32.48;28.87;93079.25;5110456;28;20084;-49
2022/05/30 07:42:06;;;;;;;6.50;3.50;;;;;;;33.42;28.73;93083.97;5110367;28;20032;-49
2022/05/30 07:44:32;;;;;;;4.18;3.28;;;;;;;33.88;27.88;93086.22;5110301;28;20031;-48
2022/05/30 07:46:59;;;;;;;4.07;3.05;;;;;;;34.17;27.11;93091.31;5110240;28;20023;-48
2022/05/30 07:49:24;;;;;;;9.05;3.33;;;;;;;34.47;26.74;93095.56;5112580;28;20123;-51
2022/05/30 07:51:50;;;;;;;4.97;2.95;;;;;;;34.13;27.02;93091.28;5114206;28;20024;-49
2022/05/30 07:54:15;;;;;;;12.30;3.45;;;;;;;34.23;26.90;93082.69;5114288;28;20024;-50
2022/05/30 07:56:41;;;;;;;3.03;2.75;;;;;;;34.39;26.52;93087.00;5114239;28;20020;-52
2022/05/30 07:59:07;;;;;;;3.88;2.78;;;;;;;33.96;26.86;93086.94;5114407;28;20028;-50
2022/05/30 08:01:33;;;;;;;5.30;2.72;;;;;;;33.82;27.41;93086.22;5114171;28;20571;-48
2022/05/30 08:03:59;;;;;;;4.38;2.65;;;;;;;33.96;27.36;93084.09;5104397;28;20028;-50
2022/05/30 08:06:27;;;;;;;8.20;2.92;;;;;;;34.86;26.54;93091.97;5093476;28;20050;-50
2022/05/30 08:08:53;;;;;;;2.80;2.60;;;;;;;34.79;26.20;93087.66;5092957;28;20020;-50
2022/05/30 08:11:20;;;;;;;4.22;2.90;;;;;;;34.26;26.59;93086.28;5093475;28;20397;-48
2022/05/30 08:13:46;;;;;;;3.17;2.70;;;;;;;34.46;26.64;93088.44;5093499;28;20020;-49
2022/05/30 08:16:13;;;;;;;5.90;2.97;;;;;;;34.77;26.55;93092.69;5112845;28;20058;-49
2022/05/30 08:18:38;;;;;;;5.05;2.70;;;;;;;34.55;25.51;93090.56;5113773;28;20489;-50
2022/05/30 08:21:05;;;;;;;3.08;2.65;;;;;;;33.53;27.46;93086.19;5113761;28;20023;-51
2022/05/30 08:23:31;;;;;;;8.00;3.13;;;;;;;33.94;27.18;93094.84;5113975;28;20051;-49
2022/05/30 08:25:56;;;;;;;7.25;3.63;;;;;;;33.58;26.80;93089.78;5113879;27;20020;-48
2022/05/30 08:28:22;;;;;;;6.22;3.55;;;;;;;33.01;28.38;93093.84;5113866;28;20028;-51
2022/05/30 08:30:48;;;;;;;6.50;3.00;;;;;;;33.17;27.89;93088.91;5113527;28;20023;-48
2022/05/30 08:33:15;;;;;;;5.07;3.28;;;;;;;33.75;28.54;93093.38;5113757;28;20062;-51
2022/05/30 08:35:41;;;;;;;22.80;4.10;;;;;;;33.19;26.94;93088.19;5113762;28;20412;-50
2022/05/30 08:38:07;;;;;;;7.43;3.67;;;;;;;32.42;29.91;93082.00;5113568;28;20429;-49
2022/05/30 08:43:34;;;;;;;4.80;3.92;;;;;;;31.16;29.34;93107.94;5113567;28;20069;-48
2022/05/30 08:46:24;;;;;;;4.72;3.65;;;;;;;30.23;32.75;93091.66;5112854;28;20092;-51
2022/05/30 08:48:55;;;;;;;5.03;3.95;;;;;;;30.42;32.29;93098.34;5112332;28;20031;-48
2022/05/30 08:51:39;;;;;;;5.63;3.88;;;;;;;30.59;32.35;93097.91;5113417;27;20078;-51
2022/05/30 08:54:16;;;;;;;8.32;4.57;;;;;;;30.57;32.26;93100.00;5113470;28;20035;-51
2022/05/30 08:56:43;;;;;;;5.18;3.63;;;;;;;31.54;30.75;93092.66;5113419;28;20027;-49
2022/05/30 08:59:33;;;;;;;6.28;3.90;;;;;;;32.11;30.42;93097.50;5111183;28;20024;-50
2022/05/30 09:02:42;;;;;;;7.72;4.00;;;;;;;32.36;30.46;93099.13;5092515;28;20072;-51
2022/05/30 09:05:17;;;;;;;4.38;3.35;;;;;;;33.21;27.54;93091.06;5071322;28;20048;-50
2022/05/30 09:07:49;;;;;;;4.45;2.85;;;;;;;34.28;25.92;93095.59;5091529;28;20031;-48
2022/05/30 09:10:32;;;;;;;5.75;2.80;;;;;;;35.23;24.36;93100.47;5091593;28;20070;-48
2022/05/30 09:13:07;;;;;;;5.25;3.70;;;;;;;34.61;26.00;93102.03;5091451;28;20054;-47
2022/05/30 09:15:49;;;;;;;8.95;3.88;;;;;;;33.29;27.73;93103.25;5091091;28;20519;-51
2022/05/30 09:18:49;;;;;;;7.68;3.65;;;;;;;31.82;30.05;93112.91;5091397;28;20665;-48
2022/05/30 09:21:16;;;;;;;7.07;3.33;;;;;;;31.74;30.90;93113.56;5092408;28;20031;-51
2022/05/30 09:23:42;;;;;;;5.40;3.30;;;;;;;33.01;30.57;93108.16;5091883;28;20024;-52
2022/05/30 09:26:25;;;;;;;6.18;3.08;;;;;;;34.56;26.06;93100.63;5091562;28;20497;-50
2022/05/30 09:28:54;;;;;;;5.18;3.08;;;;;;;35.39;23.88;93098.25;5092010;28;20489;-50
2022/05/30 09:31:51;;;;;;;;;;;;;;;35.91;25.07;93108.75;5092691;28;20028;-50
2022/05/30 09:34:37;;;;;;;3.67;3.08;;;;;;;35.87;25.56;93110.94;5079442;28;19908;-48
2022/05/30 09:37:03;;;;;;;6.93;3.55;;;;;;;36.32;23.62;93109.91;5092116;28;20308;-49
2022/05/30 09:39:28;;;;;;;3.50;3.10;;;;;;;36.97;23.83;93103.63;5090843;28;20051;-48
2022/05/30 09:41:56;;;;;;;5.38;2.53;;;;;;;37.01;23.21;93106.47;5092126;28;20101;-49
2022/05/30 09:44:30;;;;;;;3.97;3.10;;;;;;;37.04;22.57;93102.81;5094265;28;20051;-48
2022/05/30 09:47:14;;;;;;;8.82;3.10;;;;;;;37.67;21.98;93104.97;5110878;28;20084;-52
2022/05/30 09:49:42;;;;;;;6.18;2.80;;;;;;;36.75;22.72;93112.47;5111185;28;20043;-51
2022/05/30 09:52:26;;;;;;;;;;;;;;;36.31;23.82;93119.28;5112875;28;20087;-50
2022/05/30 09:54:54;;;;;;;4.25;2.80;;;;;;;36.91;22.99;93121.66;5112009;28;20008;-49
2022/05/30 09:57:20;;;;;;;4.03;2.58;;;;;;;36.99;23.27;93112.94;5095026;27;20020;-49
2022/05/30 09:59:48;;;;;;;6.28;2.47;;;;;;;36.35;22.52;93119.97;5090576;28;20028;-49
2022/05/30 10:02:33;;;;;;;8.13;3.28;;;;;;;35.42;24.19;93116.19;5090266;28;20020;-51
2022/05/30 10:05:04;;;;;;;4.07;2.72;;;;;;;36.05;24.48;93110.84;5090473;28;20032;-49
2022/05/30 10:07:32;;;;;;;6.03;2.95;;;;;;;36.66;22.69;93113.97;5091568;28;20063;-50
2022/05/30 10:10:07;;;;;;;3.33;2.75;;;;;;;37.17;23.23;93112.75;5090398;28;20386;-49
2022/05/30 10:12:44;;;;;;;4.90;2.75;;;;;;;35.90;23.78;93121.69;5089386;28;20063;-51
2022/05/30 10:15:35;;;;;;;6.78;3.20;;;;;;;34.62;25.73;93126.41;5100437;28;20515;-50
2022/05/30 10:18:12;;;;;;;5.18;3.40;;;;;;;33.81;27.87;93122.03;5111309;28;20046;-47
2022/05/30 10:21:03;;;;;;;5.20;3.33;;;;;;;34.49;27.41;93118.50;5111696;27;20088;-49
2022/05/30 10:29:37;;;;;;;5.75;2.83;;;;;;;36.04;25.90;93112.31;5110588;28;20449;-49
2022/05/30 10:32:30;;;;;;;6.60;3.33;;;;;;;36.57;25.14;93121.25;5111230;28;20496;-49
2022/05/30 10:35:08;;;;;;;3.75;2.70;;;;;;;37.03;24.15;93120.84;5110327;28;20023;-52
2022/05/30 10:38:10;;;;;;;5.30;2.70;;;;;;;37.05;22.24;93115.78;5111213;28;20023;-50
2022/05/30 10:40:41;;;;;;;3.03;2.53;;;;;;;37.41;23.24;93122.56;5094538;28;20036;-50
2022/05/30 10:43:18;;;;;;;5.47;2.92;;;;;;;37.96;21.86;93120.44;5111320;28;20027;-50
2022/05/30 10:45:58;;;;;;;2.95;2.65;;;;;;;37.39;22.75;93120.44;5109513;28;20062;-49
2022/05/30 10:48:36;;;;;;;4.95;4.25;;;;;;;36.94;23.55;93117.31;5109720;28;20024;-49
2022/05/30 10:51:20;;;;;;;5.97;3.25;;;;;;;37.32;23.60;93109.72;5109714;28;20108;-50
2022/05/30 10:53:48;;;;;;;2.85;2.53;;;;;;;37.64;23.77;93107.16;5091412;28;20089;-50
2022/05/30 10:56:23;;;;;;;5.78;3.50;;;;;;;37.53;24.32;93119.56;5090764;28;20047;-52
2022/05/30 10:58:54;;;;;;;4.60;3.10;;;;;;;36.90;24.51;93120.25;5090793;28;20062;-50
2022/05/30 11:01:32;;;;;;;7.50;3.35;;;;;;;36.52;25.40;93117.00;5090413;28;20027;-48
2022/05/30 11:04:22;;;;;;;5.25;3.10;;;;;;;36.21;25.40;93116.50;5090649;28;20417;-52
2022/05/30 11:06:49;;;;;;;11.45;3.42;;;;;;;35.01;25.25;93116.34;5089111;28;20028;-52
2022/05/30 11:09:14;;;;;;;5.05;3.35;;;;;;;34.15;27.44;93111.38;5089201;28;20073;-48
2022/05/30 11:11:49;;;;;;;6.55;3.65;;;;;;;33.01;28.26;93111.72;5090290;28;20020;-50
2022/05/30 11:14:42;;;;;;;7.15;3.85;;;;;;;32.69;28.52;93108.66;5092329;28;20059;-49
2022/05/30 11:17:20;;;;;;;4.68;3.65;;;;;;;32.77;29.44;93114.41;5101525;28;20422;-48
2022/05/30 11:19:54;;;;;;;5.07;3.80;;;;;;;33.09;28.72;93106.03;5110653;28;20066;-50
2022/05/30 11:22:44;;;;;;;7.30;3.78;;;;;;;32.79;29.08;93100.16;5110775;28;20038;-52
2022/05/30 11:25:17;;;;;;;4.22;3.83;;;;;;;32.37;31.39;93108.41;5115052;28;20062;-49
2022/05/30 11:27:55;;;;;;;7.40;3.58;;;;;;;32.22;31.16;93110.44;5114742;28;20450;-48
2022/05/30 11:30:31;;;;;;;6.13;3.63;;;;;;;31.87;30.34;93103.69;5113543;28;20026;-51
2022/05/30 11:33:39;;;;;;;4.25;3.67;;;;;;;31.42;31.37;93111.09;5114641;28;20497;-49
2022/05/30 11:36:16;;;;;;;5.63;3.70;;;;;;;30.92;31.89;93113.34;5114664;28;20401;-49
2022/05/30 11:39:00;;;;;;;7.68;3.65;;;;;;;30.56;31.38;93107.09;5113360;28;20023;-50
2022/05/30 11:41:44;;;;;;;8.43;3.80;;;;;;;30.82;31.44;93116.00;5113403;28;20045;-49
2022/05/30 11:44:13;;;;;;;4.10;3.70;;;;;;;30.39;31.35;93113.97;5114048;28;20118;-49
2022/05/30 11:47:03;;;;;;;6.20;3.95;;;;;;;30.45;34.02;93114.78;5114365;28;20062;-50
2022/05/30 11:49:51;;;;;;;6.57;3.67;;;;;;;30.63;34.54;93117.16;5100493;28;20047;-47
2022/05/30 11:52:25;;;;;;;9.52;4.15;;;;;;;30.13;33.78;93122.06;5094217;28;20031;-50
2022/05/30 11:55:20;;;;;;;6.45;4.13;;;;;;;29.63;35.22;93116.22;5093919;28;20635;-48
2022/05/30 11:58:03;;;;;;;10.70;3.88;;;;;;;29.35;36.53;93116.44;5092667;28;20024;-50
2022/05/30 12:00:32;;;;;;;10.13;4.15;;;;;;;28.79;34.64;93113.16;5092939;28;20413;-51
2022/05/30 12:03:22;;;;;;;9.02;4.32;;;;;;;28.59;38.07;93114.84;5092544;28;20031;-51
2022/05/30 12:06:02;;;;;;;10.73;4.45;;;;;;;28.50;37.49;93126.00;5073167;28;20046;-52